createdAt,value
2016-12-15T00:00:17.472Z,1025.48
2016-12-15T00:01:27.748Z,1025.49
2016-12-15T00:02:37.747Z,1025.49
2016-12-15T00:03:48.017Z,1025.53
2016-12-15T00:04:57.976Z,1025.54
2016-12-15T00:06:08.251Z,1025.54
2016-12-15T00:07:18.221Z,1025.55
2016-12-15T00:08:28.493Z,1025.54
2016-12-15T00:09:38.759Z,1025.54
2016-12-15T00:10:49.039Z,1025.5
2016-12-15T00:11:59.006Z,1025.49
2016-12-15T00:13:08.958Z,1025.5
2016-12-15T00:14:19.242Z,1025.5
2016-12-15T00:15:29.511Z,1025.54
2016-12-15T00:16:40.225Z,1025.54
2016-12-15T00:17:50.518Z,1025.52
2016-12-15T00:19:00.797Z,1025.53
2016-12-15T00:20:11.518Z,1025.51
2016-12-15T00:21:21.486Z,1025.47
2016-12-15T00:22:31.751Z,1025.49
2016-12-15T00:23:41.700Z,1025.48
2016-12-15T00:24:51.658Z,1025.48
2016-12-15T00:26:01.012Z,1025.45
2016-12-15T00:27:11.284Z,1025.48
2016-12-15T00:28:21.537Z,1025.46
2016-12-15T00:29:31.809Z,1025.47
2016-12-15T00:30:41.797Z,1025.43
2016-12-15T00:31:51.137Z,1025.48
2016-12-15T00:33:01.387Z,1025.45
2016-12-15T00:34:10.715Z,1025.47
2016-12-15T00:35:20.391Z,1025.45
2016-12-15T00:36:30.337Z,1025.47
2016-12-15T00:37:40.604Z,1025.48
2016-12-15T00:38:50.872Z,1025.5
2016-12-15T00:40:01.134Z,1025.48
2016-12-15T00:41:11.419Z,1025.48
2016-12-15T00:42:21.377Z,1025.47
2016-12-15T00:43:31.713Z,1025.42
2016-12-15T00:44:41.659Z,1025.42
2016-12-15T00:45:51.617Z,1025.43
2016-12-15T00:47:01.579Z,1025.38
2016-12-15T00:48:11.847Z,1025.42
2016-12-15T00:49:21.806Z,1025.43
2016-12-15T00:50:31.766Z,1025.43
2016-12-15T00:51:41.717Z,1025.39
2016-12-15T00:52:51.678Z,1025.39
2016-12-15T00:54:01.963Z,1025.35
2016-12-15T00:55:12.248Z,1025.34
2016-12-15T00:56:22.219Z,1025.35
2016-12-15T00:57:32.488Z,1025.35
2016-12-15T00:58:42.754Z,1025.36
2016-12-15T00:59:53.039Z,1025.35
2016-12-15T01:01:03.305Z,1025.4
2016-12-15T01:02:12.962Z,1025.39
2016-12-15T01:03:23.698Z,1025.4
2016-12-15T01:04:33.653Z,1025.42
2016-12-15T01:05:43.938Z,1025.43
2016-12-15T01:06:53.586Z,1025.37
2016-12-15T01:08:03.853Z,1025.4
2016-12-15T01:09:13.508Z,1025.39
2016-12-15T01:10:22.867Z,1025.39
2016-12-15T01:11:32.527Z,1025.41
2016-12-15T01:12:42.787Z,1025.44
2016-12-15T01:13:52.748Z,1025.42
2016-12-15T01:15:03.014Z,1025.43
2016-12-15T01:16:12.959Z,1025.47
2016-12-15T01:17:22.613Z,1025.48
2016-12-15T01:18:32.262Z,1025.51
2016-12-15T01:19:41.592Z,1025.52
2016-12-15T01:20:51.231Z,1025.52
2016-12-15T01:22:01.190Z,1025.52
2016-12-15T01:23:11.463Z,1025.54
2016-12-15T01:24:21.733Z,1025.57
2016-12-15T01:25:32.019Z,1025.55
2016-12-15T01:26:42.284Z,1025.53
2016-12-15T01:27:52.233Z,1025.53
2016-12-15T01:29:02.191Z,1025.56
2016-12-15T01:30:12.444Z,1025.51
2016-12-15T01:31:22.089Z,1025.48
2016-12-15T01:32:32.358Z,1025.54
2016-12-15T01:33:42.316Z,1025.51
2016-12-15T01:34:52.585Z,1025.56
2016-12-15T01:36:02.534Z,1025.52
2016-12-15T01:37:12.486Z,1025.55
2016-12-15T01:38:22.432Z,1025.53
2016-12-15T01:39:32.717Z,1025.53
2016-12-15T01:40:42.687Z,1025.55
2016-12-15T01:41:52.636Z,1025.6
2016-12-15T01:43:02.335Z,1025.61
2016-12-15T01:44:11.363Z,1025.64
2016-12-15T01:45:21.321Z,1025.61
2016-12-15T01:46:31.591Z,1025.63
2016-12-15T01:47:41.536Z,1025.61
2016-12-15T01:48:51.804Z,1025.68
2016-12-15T01:50:02.070Z,1025.66
2016-12-15T01:51:12.052Z,1025.71
2016-12-15T01:52:22.018Z,1025.74
2016-12-15T01:53:32.015Z,1025.77
2016-12-15T01:54:42.277Z,1025.78
2016-12-15T01:55:52.537Z,1025.76
2016-12-15T01:57:02.809Z,1025.76
2016-12-15T01:58:12.793Z,1025.8
2016-12-15T01:59:22.748Z,1025.77
2016-12-15T02:00:32.701Z,1025.79
2016-12-15T02:01:42.963Z,1025.8
2016-12-15T02:02:52.617Z,1025.81
2016-12-15T02:04:01.949Z,1025.85
2016-12-15T02:05:12.233Z,1025.83
2016-12-15T02:06:22.502Z,1025.88
2016-12-15T02:07:32.768Z,1025.91
2016-12-15T02:08:42.726Z,1025.94
2016-12-15T02:09:52.985Z,1025.89
2016-12-15T02:11:02.940Z,1025.9
2016-12-15T02:12:13.206Z,1025.88
2016-12-15T02:13:23.163Z,1025.92
2016-12-15T02:14:33.117Z,1025.92
2016-12-15T02:15:43.388Z,1025.9
2016-12-15T02:16:53.379Z,1025.9
2016-12-15T02:18:03.652Z,1025.91
2016-12-15T02:19:13.615Z,1025.91
2016-12-15T02:20:23.885Z,1025.91
2016-12-15T02:21:34.147Z,1025.92
2016-12-15T02:22:44.099Z,1025.93
2016-12-15T02:23:54.351Z,1025.97
2016-12-15T02:25:04.302Z,1025.93
2016-12-15T02:26:13.964Z,1025.93
2016-12-15T02:27:24.220Z,1025.96
2016-12-15T02:28:34.496Z,1025.97
2016-12-15T02:29:44.454Z,1025.97
2016-12-15T02:30:54.442Z,1026.02
2016-12-15T02:32:04.093Z,1026.03
2016-12-15T02:33:13.750Z,1026.05
2016-12-15T02:34:23.702Z,1026.09
2016-12-15T02:35:33.350Z,1026.06
2016-12-15T02:36:43.609Z,1026.08
2016-12-15T02:37:53.558Z,1026.06
2016-12-15T02:39:03.520Z,1026.07
2016-12-15T02:40:13.786Z,1026.03
2016-12-15T02:41:23.734Z,1026.08
2016-12-15T02:42:33.993Z,1026.05
2016-12-15T02:43:44.026Z,1026
2016-12-15T02:44:54.390Z,1026.03
2016-12-15T02:46:04.852Z,1026.05
2016-12-15T02:47:15.107Z,1026.02
2016-12-15T02:48:24.751Z,1026.06
2016-12-15T02:49:34.704Z,1026.09
2016-12-15T02:50:44.560Z,1026.09
2016-12-15T02:51:54.220Z,1026.09
2016-12-15T02:53:55.168Z,1026.08
2016-12-15T02:55:05.467Z,1026.11
2016-12-15T02:56:15.728Z,1026.17
2016-12-15T02:57:25.370Z,1026.14
2016-12-15T02:58:34.704Z,1026.15
2016-12-15T02:59:44.969Z,1026.19
2016-12-15T03:00:54.921Z,1026.17
2016-12-15T03:02:04.883Z,1026.18
2016-12-15T03:03:15.142Z,1026.19
2016-12-15T03:04:25.414Z,1026.18
2016-12-15T03:05:35.679Z,1026.16
2016-12-15T03:06:45.935Z,1026.15
2016-12-15T03:07:56.195Z,1026.12
2016-12-15T03:09:06.467Z,1026.1
2016-12-15T03:10:16.434Z,1026.09
2016-12-15T03:11:26.718Z,1026.11
2016-12-15T03:12:36.992Z,1026.17
2016-12-15T03:13:46.954Z,1026.15
2016-12-15T03:14:56.908Z,1026.13
2016-12-15T03:16:06.873Z,1026.18
2016-12-15T03:17:17.132Z,1026.16
2016-12-15T03:18:27.401Z,1026.14
2016-12-15T03:19:37.673Z,1026.14
2016-12-15T03:20:47.936Z,1026.17
2016-12-15T03:21:58.201Z,1026.16
2016-12-15T03:23:08.473Z,1026.18
2016-12-15T03:24:18.428Z,1026.18
2016-12-15T03:25:28.682Z,1026.22
2016-12-15T03:26:39.081Z,1026.2
2016-12-15T03:27:49.347Z,1026.29
2016-12-15T03:28:59.644Z,1026.29
2016-12-15T03:30:09.913Z,1026.27
2016-12-15T03:31:20.175Z,1026.25
2016-12-15T03:32:30.118Z,1026.3
2016-12-15T03:33:40.076Z,1026.32
2016-12-15T03:34:50.026Z,1026.34
2016-12-15T03:35:59.971Z,1026.36
2016-12-15T03:37:10.224Z,1026.36
2016-12-15T03:38:20.186Z,1026.38
2016-12-15T03:39:30.445Z,1026.42
2016-12-15T03:40:40.707Z,1026.43
2016-12-15T03:41:50.979Z,1026.44
2016-12-15T03:43:01.248Z,1026.46
2016-12-15T03:44:11.200Z,1026.42
2016-12-15T03:45:20.838Z,1026.43
2016-12-15T03:46:30.470Z,1026.45
2016-12-15T03:47:40.739Z,1026.4
2016-12-15T03:48:50.720Z,1026.39
2016-12-15T03:50:00.988Z,1026.4
2016-12-15T03:51:11.251Z,1026.35
2016-12-15T03:52:21.521Z,1026.39
2016-12-15T03:53:31.171Z,1026.42
2016-12-15T03:54:41.443Z,1026.37
2016-12-15T03:55:51.398Z,1026.39
2016-12-15T03:57:01.661Z,1026.38
2016-12-15T03:58:11.302Z,1026.35
2016-12-15T03:59:21.567Z,1026.32
2016-12-15T04:00:31.222Z,1026.32
2016-12-15T04:01:41.475Z,1026.35
2016-12-15T04:02:51.569Z,1026.35
2016-12-15T04:04:01.839Z,1026.34
2016-12-15T04:05:11.782Z,1026.32
2016-12-15T04:06:22.054Z,1026.3
2016-12-15T04:07:32.108Z,1026.33
2016-12-15T04:08:42.060Z,1026.3
2016-12-15T04:09:52.227Z,1026.33
2016-12-15T04:11:02.178Z,1026.32
2016-12-15T04:12:11.814Z,1026.33
2016-12-15T04:13:21.461Z,1026.29
2016-12-15T04:14:31.720Z,1026.27
2016-12-15T04:15:41.983Z,1026.29
2016-12-15T04:16:52.249Z,1026.3
2016-12-15T04:18:02.527Z,1026.31
2016-12-15T04:19:12.512Z,1026.33
2016-12-15T04:20:22.793Z,1026.31
2016-12-15T04:21:32.441Z,1026.31
2016-12-15T04:22:42.707Z,1026.31
2016-12-15T04:23:52.976Z,1026.33
2016-12-15T04:25:02.946Z,1026.36
2016-12-15T04:26:12.580Z,1026.35
2016-12-15T04:27:22.544Z,1026.35
2016-12-15T04:28:32.194Z,1026.33
2016-12-15T04:29:42.451Z,1026.36
2016-12-15T04:30:52.098Z,1026.34
2016-12-15T04:32:02.068Z,1026.34
2016-12-15T04:33:12.332Z,1026.41
2016-12-15T04:34:22.594Z,1026.39
2016-12-15T04:35:32.543Z,1026.38
2016-12-15T04:36:42.812Z,1026.42
2016-12-15T04:37:53.092Z,1026.34
2016-12-15T04:39:03.058Z,1026.39
2016-12-15T04:40:13.314Z,1026.4
2016-12-15T04:41:23.580Z,1026.34
2016-12-15T04:42:33.224Z,1026.38
2016-12-15T04:43:43.484Z,1026.36
2016-12-15T04:44:53.746Z,1026.35
2016-12-15T04:46:04.002Z,1026.36
2016-12-15T04:47:14.270Z,1026.42
2016-12-15T04:48:24.531Z,1026.41
2016-12-15T04:49:34.796Z,1026.4
2016-12-15T04:50:45.068Z,1026.41
2016-12-15T04:51:54.703Z,1026.46
2016-12-15T04:53:04.665Z,1026.42
2016-12-15T04:54:14.921Z,1026.45
2016-12-15T04:55:25.186Z,1026.4
2016-12-15T04:56:35.151Z,1026.44
2016-12-15T04:57:44.814Z,1026.47
2016-12-15T04:58:55.403Z,1026.44
2016-12-15T05:00:05.669Z,1026.44
2016-12-15T05:01:15.938Z,1026.48
2016-12-15T05:02:25.893Z,1026.47
2016-12-15T05:03:36.149Z,1026.56
2016-12-15T05:04:46.094Z,1026.55
2016-12-15T05:05:56.059Z,1026.55
2016-12-15T05:07:06.028Z,1026.57
2016-12-15T05:08:15.982Z,1026.57
2016-12-15T05:09:26.251Z,1026.58
2016-12-15T05:10:36.516Z,1026.62
2016-12-15T05:11:46.472Z,1026.6
2016-12-15T05:12:56.433Z,1026.62
2016-12-15T05:14:05.771Z,1026.64
2016-12-15T05:15:15.723Z,1026.66
2016-12-15T05:16:25.361Z,1026.63
2016-12-15T05:17:35.310Z,1026.62
2016-12-15T05:18:45.576Z,1026.67
2016-12-15T05:19:55.841Z,1026.66
2016-12-15T05:21:06.114Z,1026.67
2016-12-15T05:22:16.071Z,1026.66
2016-12-15T05:23:26.331Z,1026.64
2016-12-15T05:24:36.292Z,1026.65
2016-12-15T05:25:46.254Z,1026.66
2016-12-15T05:26:56.504Z,1026.66
2016-12-15T05:28:06.766Z,1026.68
2016-12-15T05:29:16.781Z,1026.69
2016-12-15T05:30:27.038Z,1026.68
2016-12-15T05:31:37.018Z,1026.65
2016-12-15T05:32:47.291Z,1026.65
2016-12-15T05:33:57.553Z,1026.67
2016-12-15T05:35:07.621Z,1026.68
2016-12-15T05:36:17.578Z,1026.67
2016-12-15T05:37:27.857Z,1026.68
2016-12-15T05:38:37.818Z,1026.67
2016-12-15T05:39:47.779Z,1026.66
2016-12-15T05:40:57.841Z,1026.67
2016-12-15T05:42:08.132Z,1026.67
2016-12-15T05:43:18.392Z,1026.66
2016-12-15T05:44:28.356Z,1026.73
2016-12-15T05:45:38.631Z,1026.76
2016-12-15T05:46:48.698Z,1026.8
2016-12-15T05:47:58.651Z,1026.81
2016-12-15T05:49:08.619Z,1026.81
2016-12-15T05:50:18.587Z,1026.83
2016-12-15T05:51:28.865Z,1026.86
2016-12-15T05:52:38.842Z,1026.84
2016-12-15T05:53:48.823Z,1026.84
2016-12-15T05:54:58.481Z,1026.89
2016-12-15T05:56:08.750Z,1026.89
2016-12-15T05:57:19.018Z,1026.9
2016-12-15T05:58:29.133Z,1026.94
2016-12-15T05:59:39.397Z,1026.91
2016-12-15T06:00:49.665Z,1026.91
2016-12-15T06:01:59.310Z,1026.96
2016-12-15T06:03:09.582Z,1026.97
2016-12-15T06:04:19.655Z,1026.99
2016-12-15T06:05:29.930Z,1026.98
2016-12-15T06:06:39.590Z,1026.98
2016-12-15T06:07:49.556Z,1026.99
2016-12-15T06:08:59.844Z,1027.01
2016-12-15T06:10:10.218Z,1026.98
2016-12-15T06:11:20.494Z,1026.96
2016-12-15T06:12:30.439Z,1027.01
2016-12-15T06:13:40.407Z,1026.99
2016-12-15T06:14:50.372Z,1026.96
2016-12-15T06:16:00.433Z,1026.96
2016-12-15T06:17:10.384Z,1026.96
2016-12-15T06:18:20.644Z,1026.94
2016-12-15T06:19:30.603Z,1026.9
2016-12-15T06:20:40.881Z,1026.91
2016-12-15T06:21:51.255Z,1026.95
2016-12-15T06:23:01.229Z,1026.93
2016-12-15T06:24:10.894Z,1026.94
2016-12-15T06:25:21.160Z,1026.99
2016-12-15T06:26:31.424Z,1026.97
2016-12-15T06:27:41.491Z,1026.99
2016-12-15T06:28:51.760Z,1027.03
2016-12-15T06:30:02.050Z,1027.01
2016-12-15T06:31:11.699Z,1027.07
2016-12-15T06:32:21.975Z,1027.05
2016-12-15T06:33:31.732Z,1027.05
2016-12-15T06:34:41.389Z,1027.09
2016-12-15T06:35:51.644Z,1027.05
2016-12-15T06:37:01.911Z,1027.04
2016-12-15T06:38:12.169Z,1027.07
2016-12-15T06:39:22.540Z,1027.12
2016-12-15T06:40:32.514Z,1027.13
2016-12-15T06:41:42.467Z,1027.18
2016-12-15T06:42:52.115Z,1027.21
2016-12-15T06:44:02.079Z,1027.21
2016-12-15T06:45:12.139Z,1027.2
2016-12-15T06:46:22.421Z,1027.2
2016-12-15T06:47:32.367Z,1027.18
2016-12-15T06:48:42.642Z,1027.21
2016-12-15T06:49:52.904Z,1027.21
2016-12-15T06:51:03.205Z,1027.2
2016-12-15T06:52:13.487Z,1027.23
2016-12-15T06:53:23.122Z,1027.25
2016-12-15T06:54:33.381Z,1027.28
2016-12-15T06:55:43.637Z,1027.28
2016-12-15T06:56:53.928Z,1027.31
2016-12-15T06:58:04.203Z,1027.31
2016-12-15T06:59:14.177Z,1027.35
2016-12-15T07:00:24.157Z,1027.31
2016-12-15T07:01:34.439Z,1027.36
2016-12-15T07:02:44.404Z,1027.27
2016-12-15T07:03:54.420Z,1027.31
2016-12-15T07:05:04.701Z,1027.3
2016-12-15T07:06:14.977Z,1027.3
2016-12-15T07:07:24.358Z,1027.34
2016-12-15T07:08:34.340Z,1027.34
2016-12-15T07:09:44.298Z,1027.35
2016-12-15T07:10:54.630Z,1027.34
2016-12-15T07:12:04.293Z,1027.36
2016-12-15T07:13:14.329Z,1027.38
2016-12-15T07:14:24.360Z,1027.41
2016-12-15T07:15:34.319Z,1027.43
2016-12-15T07:16:44.585Z,1027.41
2016-12-15T07:17:54.565Z,1027.43
2016-12-15T07:19:04.541Z,1027.43
2016-12-15T07:20:14.821Z,1027.43
2016-12-15T07:21:24.844Z,1027.42
2016-12-15T07:22:34.816Z,1027.46
2016-12-15T07:23:45.091Z,1027.44
2016-12-15T07:24:55.052Z,1027.48
2016-12-15T07:26:05.320Z,1027.51
2016-12-15T07:27:14.998Z,1027.55
2016-12-15T07:28:25.270Z,1027.58
2016-12-15T07:29:35.228Z,1027.59
2016-12-15T07:30:45.571Z,1027.63
2016-12-15T07:31:55.552Z,1027.64
2016-12-15T07:33:05.209Z,1027.64
2016-12-15T07:34:14.927Z,1027.66
2016-12-15T07:35:25.206Z,1027.66
2016-12-15T07:36:35.715Z,1027.7
2016-12-15T07:37:45.987Z,1027.7
2016-12-15T07:38:55.977Z,1027.73
2016-12-15T07:40:06.319Z,1027.73
2016-12-15T07:41:16.287Z,1027.77
2016-12-15T07:42:26.562Z,1027.73
2016-12-15T07:43:36.870Z,1027.72
2016-12-15T07:44:47.167Z,1027.74
2016-12-15T07:45:57.446Z,1027.76
2016-12-15T07:47:07.119Z,1027.77
2016-12-15T07:48:16.783Z,1027.77
2016-12-15T07:49:26.742Z,1027.78
2016-12-15T07:50:36.766Z,1027.78
2016-12-15T07:51:47.155Z,1027.8
2016-12-15T07:52:57.135Z,1027.82
2016-12-15T07:54:06.473Z,1027.81
2016-12-15T07:55:16.754Z,1027.89
2016-12-15T07:56:26.760Z,1027.9
2016-12-15T07:57:37.043Z,1027.91
2016-12-15T07:58:47.004Z,1027.92
2016-12-15T07:59:57.295Z,1027.93
2016-12-15T08:01:07.055Z,1027.87
2016-12-15T08:02:17.346Z,1027.95
2016-12-15T08:03:27.628Z,1027.99
2016-12-15T08:04:37.632Z,1027.96
2016-12-15T08:05:46.987Z,1027.99
2016-12-15T08:06:57.018Z,1028
2016-12-15T08:08:07.015Z,1028.01
2016-12-15T08:09:16.660Z,1028.07
2016-12-15T08:10:26.657Z,1028.07
2016-12-15T08:11:36.647Z,1028.07
2016-12-15T08:12:46.001Z,1028.1
2016-12-15T08:13:55.898Z,1028.09
2016-12-15T08:15:05.860Z,1028.13
2016-12-15T08:16:15.819Z,1028.11
2016-12-15T08:17:26.126Z,1028.08
2016-12-15T08:18:36.087Z,1028.12
2016-12-15T08:19:46.358Z,1028.13
2016-12-15T08:20:56.343Z,1028.1
2016-12-15T08:22:06.647Z,1028.14
2016-12-15T08:23:16.970Z,1028.12
2016-12-15T08:24:27.249Z,1028.18
2016-12-15T08:25:37.538Z,1028.2
2016-12-15T08:26:47.812Z,1028.19
2016-12-15T08:27:57.816Z,1028.18
2016-12-15T08:29:08.085Z,1028.24
2016-12-15T08:30:17.433Z,1028.27
2016-12-15T08:31:27.403Z,1028.3
2016-12-15T08:32:37.068Z,1028.33
2016-12-15T08:33:47.363Z,1028.3
2016-12-15T08:34:57.657Z,1028.35
2016-12-15T08:36:07.330Z,1028.34
2016-12-15T08:37:16.984Z,1028.35
2016-12-15T08:38:26.658Z,1028.32
2016-12-15T08:39:36.959Z,1028.33
2016-12-15T08:40:46.933Z,1028.35
2016-12-15T08:41:56.594Z,1028.36
2016-12-15T08:43:06.556Z,1028.34
2016-12-15T08:44:15.906Z,1028.35
2016-12-15T08:45:25.880Z,1028.36
2016-12-15T08:46:35.846Z,1028.31
2016-12-15T08:47:45.819Z,1028.33
2016-12-15T08:48:56.080Z,1028.33
2016-12-15T08:50:06.087Z,1028.33
2016-12-15T08:51:16.380Z,1028.37
2016-12-15T08:52:26.700Z,1028.39
2016-12-15T08:53:36.652Z,1028.4
2016-12-15T08:54:46.915Z,1028.38
2016-12-15T08:55:57.187Z,1028.39
2016-12-15T08:57:06.842Z,1028.38
2016-12-15T08:58:16.812Z,1028.37
2016-12-15T08:59:27.101Z,1028.36
2016-12-15T09:00:37.059Z,1028.35
2016-12-15T09:01:47.338Z,1028.34
2016-12-15T09:02:57.293Z,1028.31
2016-12-15T09:04:07.265Z,1028.34
2016-12-15T09:05:16.292Z,1028.35
2016-12-15T09:06:25.937Z,1028.31
2016-12-15T09:07:35.914Z,1028.3
2016-12-15T09:08:45.563Z,1028.34
2016-12-15T09:09:55.838Z,1028.32
2016-12-15T09:11:05.810Z,1028.37
2016-12-15T09:12:15.524Z,1028.32
2016-12-15T09:13:25.502Z,1028.31
2016-12-15T09:14:35.166Z,1028.32
2016-12-15T09:15:45.544Z,1028.3
2016-12-15T09:16:55.234Z,1028.28
2016-12-15T09:18:05.599Z,1028.32
2016-12-15T09:19:15.012Z,1028.3
2016-12-15T09:20:25.304Z,1028.32
2016-12-15T09:21:35.608Z,1028.33
2016-12-15T09:22:45.890Z,1028.34
2016-12-15T09:23:55.892Z,1028.32
2016-12-15T09:25:05.906Z,1028.33
2016-12-15T09:26:16.098Z,1028.36
2016-12-15T09:27:26.082Z,1028.31
2016-12-15T09:28:36.374Z,1028.29
2016-12-15T09:29:46.674Z,1028.3
2016-12-15T09:30:56.965Z,1028.28
2016-12-15T09:32:07.260Z,1028.35
2016-12-15T09:33:16.941Z,1028.38
2016-12-15T09:34:26.923Z,1028.37
2016-12-15T09:35:37.209Z,1028.36
2016-12-15T09:36:47.487Z,1028.35
2016-12-15T09:37:57.148Z,1028.37
2016-12-15T09:39:07.180Z,1028.36
2016-12-15T09:40:17.160Z,1028.38
2016-12-15T09:41:26.869Z,1028.36
2016-12-15T09:42:36.521Z,1028.34
2016-12-15T09:43:46.560Z,1028.34
2016-12-15T09:44:56.842Z,1028.33
2016-12-15T09:46:07.199Z,1028.31
2016-12-15T09:47:17.552Z,1028.36
2016-12-15T09:48:27.222Z,1028.35
2016-12-15T09:49:37.507Z,1028.34
2016-12-15T09:50:47.503Z,1028.37
2016-12-15T09:51:57.491Z,1028.35
2016-12-15T09:53:06.848Z,1028.34
2016-12-15T09:54:16.516Z,1028.35
2016-12-15T09:55:26.173Z,1028.31
2016-12-15T09:56:35.998Z,1028.33
2016-12-15T09:57:45.968Z,1028.35
2016-12-15T09:58:56.278Z,1028.31
2016-12-15T10:00:06.550Z,1028.32
2016-12-15T10:01:16.825Z,1028.37
2016-12-15T10:02:27.146Z,1028.35
2016-12-15T10:03:37.111Z,1028.3
2016-12-15T10:04:47.377Z,1028.32
2016-12-15T10:05:57.338Z,1028.31
2016-12-15T10:07:07.332Z,1028.3
2016-12-15T10:08:17.674Z,1028.29
2016-12-15T10:09:27.652Z,1028.28
2016-12-15T10:10:38.043Z,1028.3
2016-12-15T10:11:48.371Z,1028.25
2016-12-15T10:12:58.330Z,1028.27
2016-12-15T10:14:08.337Z,1028.24
2016-12-15T10:15:18.017Z,1028.21
2016-12-15T10:16:27.757Z,1028.18
2016-12-15T10:17:37.768Z,1028.18
2016-12-15T10:18:47.805Z,1028.14
2016-12-15T10:19:58.132Z,1028.1
2016-12-15T10:21:07.924Z,1028.12
2016-12-15T10:22:17.579Z,1028.14
2016-12-15T10:23:27.246Z,1028.12
2016-12-15T10:24:37.520Z,1028.11
2016-12-15T10:25:47.818Z,1028.13
2016-12-15T10:26:58.094Z,1028.13
2016-12-15T10:28:07.755Z,1028.11
2016-12-15T10:29:18.033Z,1028.12
2016-12-15T10:30:27.386Z,1028.08
2016-12-15T10:31:37.866Z,1028.04
2016-12-15T10:32:47.851Z,1028.07
2016-12-15T10:33:57.531Z,1028.05
2016-12-15T10:35:07.505Z,1028.04
2016-12-15T10:36:17.473Z,1027.98
2016-12-15T10:37:27.752Z,1027.98
2016-12-15T10:38:37.404Z,1028.01
2016-12-15T10:39:47.357Z,1027.96
2016-12-15T10:40:57.629Z,1027.99
2016-12-15T10:42:07.582Z,1027.99
2016-12-15T10:43:17.617Z,1028.05
2016-12-15T10:44:27.898Z,1028.09
2016-12-15T10:45:37.560Z,1028.07
2016-12-15T10:46:47.253Z,1028.02
2016-12-15T10:47:56.917Z,1028.06
2016-12-15T10:49:06.931Z,1028.07
2016-12-15T10:50:17.203Z,1028.06
2016-12-15T10:51:27.508Z,1028
2016-12-15T10:52:37.188Z,1028.03
2016-12-15T10:53:47.486Z,1028.04
2016-12-15T10:54:57.795Z,1027.99
2016-12-15T10:56:08.093Z,1027.95
2016-12-15T10:57:18.394Z,1027.97
2016-12-15T10:58:28.705Z,1027.99
2016-12-15T10:59:38.734Z,1027.98
2016-12-15T11:00:48.126Z,1027.96
2016-12-15T11:01:58.112Z,1027.98
2016-12-15T11:03:07.756Z,1027.91
2016-12-15T11:04:17.757Z,1027.92
2016-12-15T11:05:27.450Z,1027.92
2016-12-15T11:06:36.867Z,1027.93
2016-12-15T11:07:47.149Z,1027.9
2016-12-15T11:08:57.444Z,1027.89
2016-12-15T11:10:07.735Z,1027.86
2016-12-15T11:11:17.733Z,1027.87
2016-12-15T11:12:26.791Z,1027.83
2016-12-15T11:13:36.464Z,1027.84
2016-12-15T11:14:46.758Z,1027.83
2016-12-15T11:15:56.739Z,1027.87
2016-12-15T11:17:07.085Z,1027.85
2016-12-15T11:18:17.450Z,1027.86
2016-12-15T11:19:27.108Z,1027.87
2016-12-15T11:20:37.082Z,1027.86
2016-12-15T11:21:47.072Z,1027.78
2016-12-15T11:22:57.070Z,1027.78
2016-12-15T11:24:07.345Z,1027.78
2016-12-15T11:25:17.296Z,1027.76
2016-12-15T11:26:27.610Z,1027.78
2016-12-15T11:27:37.898Z,1027.78
2016-12-15T11:28:47.547Z,1027.78
2016-12-15T11:29:57.476Z,1027.79
2016-12-15T11:31:07.778Z,1027.76
2016-12-15T11:32:17.759Z,1027.75
2016-12-15T11:33:28.099Z,1027.72
2016-12-15T11:34:38.433Z,1027.74
2016-12-15T11:35:47.811Z,1027.73
2016-12-15T11:36:57.780Z,1027.69
2016-12-15T11:38:07.751Z,1027.68
2016-12-15T11:39:18.022Z,1027.73
2016-12-15T11:40:27.706Z,1027.71
2016-12-15T11:41:38.045Z,1027.74
2016-12-15T11:42:47.408Z,1027.76
2016-12-15T11:43:57.731Z,1027.76
2016-12-15T11:45:07.386Z,1027.73
2016-12-15T11:46:17.667Z,1027.71
2016-12-15T11:47:27.968Z,1027.73
2016-12-15T11:48:38.269Z,1027.68
2016-12-15T11:49:48.605Z,1027.7
2016-12-15T11:50:58.626Z,1027.69
2016-12-15T11:52:08.928Z,1027.69
2016-12-15T11:53:19.194Z,1027.67
2016-12-15T11:54:29.478Z,1027.69
2016-12-15T11:55:39.454Z,1027.71
2016-12-15T11:56:49.980Z,1027.75
2016-12-15T11:58:00.269Z,1027.73
2016-12-15T11:59:10.242Z,1027.72
2016-12-15T12:00:19.925Z,1027.73
2016-12-15T12:01:29.908Z,1027.69
2016-12-15T12:02:39.871Z,1027.68
2016-12-15T12:03:49.538Z,1027.64
2016-12-15T12:04:59.822Z,1027.64
2016-12-15T12:06:09.857Z,1027.65
2016-12-15T12:07:19.832Z,1027.66
2016-12-15T12:08:30.134Z,1027.66
2016-12-15T12:09:40.122Z,1027.68
2016-12-15T12:10:50.465Z,1027.67
2016-12-15T12:12:00.805Z,1027.66
2016-12-15T12:13:10.538Z,1027.62
2016-12-15T12:14:20.836Z,1027.64
2016-12-15T12:15:30.850Z,1027.64
2016-12-15T12:16:41.126Z,1027.66
2016-12-15T12:17:51.387Z,1027.68
2016-12-15T12:19:01.662Z,1027.7
2016-12-15T12:20:11.966Z,1027.71
2016-12-15T12:21:22.251Z,1027.67
2016-12-15T12:22:32.510Z,1027.68
2016-12-15T12:23:42.493Z,1027.66
2016-12-15T12:24:52.468Z,1027.67
2016-12-15T12:26:02.755Z,1027.62
2016-12-15T12:27:12.436Z,1027.65
2016-12-15T12:28:22.387Z,1027.64
2016-12-15T12:29:32.353Z,1027.61
2016-12-15T12:30:42.337Z,1027.62
2016-12-15T12:31:52.288Z,1027.58
2016-12-15T12:33:01.971Z,1027.59
2016-12-15T12:34:12.268Z,1027.63
2016-12-15T12:35:22.557Z,1027.64
2016-12-15T12:36:32.514Z,1027.64
2016-12-15T12:37:42.195Z,1027.6
2016-12-15T12:38:52.157Z,1027.58
2016-12-15T12:40:02.431Z,1027.57
2016-12-15T12:41:12.402Z,1027.57
2016-12-15T12:42:22.694Z,1027.56
2016-12-15T12:43:32.678Z,1027.59
2016-12-15T12:44:42.653Z,1027.59
2016-12-15T12:45:52.857Z,1027.58
2016-12-15T12:47:03.287Z,1027.54
2016-12-15T12:48:13.248Z,1027.52
2016-12-15T12:49:23.234Z,1027.51
2016-12-15T12:50:33.591Z,1027.5
2016-12-15T12:51:43.952Z,1027.46
2016-12-15T12:52:53.923Z,1027.51
2016-12-15T12:54:04.230Z,1027.5
2016-12-15T12:55:14.526Z,1027.46
2016-12-15T12:56:24.770Z,1027.52
2016-12-15T12:57:34.467Z,1027.51
2016-12-15T12:58:44.752Z,1027.48
2016-12-15T12:59:54.463Z,1027.49
2016-12-15T13:01:04.997Z,1027.46
2016-12-15T13:02:15.291Z,1027.46
2016-12-15T13:03:25.261Z,1027.46
2016-12-15T13:04:35.247Z,1027.44
2016-12-15T13:05:45.523Z,1027.44
2016-12-15T13:06:55.215Z,1027.44
2016-12-15T13:08:05.260Z,1027.42
2016-12-15T13:09:15.529Z,1027.48
2016-12-15T13:10:25.805Z,1027.39
2016-12-15T13:11:35.539Z,1027.42
2016-12-15T13:12:45.836Z,1027.41
2016-12-15T13:13:55.990Z,1027.41
2016-12-15T13:15:05.974Z,1027.43
2016-12-15T13:16:16.281Z,1027.42
2016-12-15T13:17:25.958Z,1027.41
2016-12-15T13:18:36.281Z,1027.41
2016-12-15T13:19:46.246Z,1027.47
2016-12-15T13:20:56.534Z,1027.47
2016-12-15T13:22:06.515Z,1027.47
2016-12-15T13:23:16.483Z,1027.48
2016-12-15T13:24:26.791Z,1027.49
2016-12-15T13:25:36.534Z,1027.45
2016-12-15T13:26:46.502Z,1027.42
2016-12-15T13:27:56.777Z,1027.47
2016-12-15T13:29:06.761Z,1027.48
2016-12-15T13:30:16.729Z,1027.48
2016-12-15T13:31:26.691Z,1027.5
2016-12-15T13:32:36.672Z,1027.45
2016-12-15T13:33:46.970Z,1027.46
2016-12-15T13:34:56.614Z,1027.46
2016-12-15T13:36:06.912Z,1027.48
2016-12-15T13:37:17.203Z,1027.5
2016-12-15T13:38:26.870Z,1027.47
2016-12-15T13:39:36.823Z,1027.5
2016-12-15T13:40:46.481Z,1027.49
2016-12-15T13:41:56.446Z,1027.5
2016-12-15T13:43:06.749Z,1027.55
2016-12-15T13:44:17.021Z,1027.6
2016-12-15T13:45:27.314Z,1027.55
2016-12-15T13:46:37.747Z,1027.55
2016-12-15T13:47:47.853Z,1027.53
2016-12-15T13:48:58.305Z,1027.51
2016-12-15T13:50:07.977Z,1027.51
2016-12-15T13:51:18.271Z,1027.49
2016-12-15T13:52:28.541Z,1027.49
2016-12-15T13:53:37.887Z,1027.47
2016-12-15T13:54:48.176Z,1027.5
2016-12-15T13:55:58.147Z,1027.49
2016-12-15T13:57:08.162Z,1027.5
2016-12-15T13:58:17.853Z,1027.49
2016-12-15T13:59:28.150Z,1027.5
2016-12-15T14:00:38.276Z,1027.48
2016-12-15T14:01:48.247Z,1027.5
2016-12-15T14:02:58.259Z,1027.54
2016-12-15T14:04:08.228Z,1027.51
2016-12-15T14:05:17.814Z,1027.5
2016-12-15T14:06:28.109Z,1027.59
2016-12-15T14:07:38.413Z,1027.61
2016-12-15T14:08:48.702Z,1027.55
2016-12-15T14:09:58.686Z,1027.58
2016-12-15T14:11:09.005Z,1027.58